createdAt,value
2018-07-07T00:01:42.919Z,19.00
2018-07-07T00:04:13.111Z,19.00
2018-07-07T00:06:43.271Z,19.00
2018-07-07T00:09:13.356Z,19.00
2018-07-07T00:11:43.499Z,18.90
2018-07-07T00:14:13.633Z,18.90
2018-07-07T00:16:43.711Z,18.90
2018-07-07T00:19:13.887Z,18.80
2018-07-07T00:21:43.989Z,18.80
2018-07-07T00:24:15.079Z,18.80
2018-07-07T00:26:45.209Z,18.80
2018-07-07T00:29:15.354Z,18.70
2018-07-07T00:31:45.530Z,18.70
2018-07-07T00:34:15.640Z,18.70
2018-07-07T00:36:45.758Z,18.60
2018-07-07T00:41:47.912Z,18.60
2018-07-07T00:44:18.062Z,18.50
2018-07-07T00:46:48.146Z,18.50
2018-07-07T00:49:18.291Z,18.50
2018-07-07T00:51:48.378Z,18.50
2018-07-07T00:54:18.577Z,18.40
2018-07-07T00:56:48.881Z,18.40
2018-07-07T00:59:19.046Z,18.30
2018-07-07T01:01:49.492Z,18.30
2018-07-07T01:04:19.684Z,18.30
2018-07-07T01:06:49.882Z,18.20
2018-07-07T01:09:19.966Z,18.20
2018-07-07T01:11:50.801Z,18.10
2018-07-07T01:14:20.996Z,18.10
2018-07-07T01:19:21.042Z,18.10
2018-07-07T01:24:20.851Z,18.00
2018-07-07T01:26:52.428Z,18.00
2018-07-07T01:29:23.048Z,17.90
2018-07-07T01:31:53.152Z,17.90
2018-07-07T01:34:23.238Z,17.80
2018-07-07T01:36:53.700Z,17.80
2018-07-07T01:39:23.876Z,17.70
2018-07-07T01:41:54.034Z,17.70
2018-07-07T01:44:24.113Z,17.70
2018-07-07T01:46:54.330Z,17.70
2018-07-07T01:49:24.380Z,17.70
2018-07-07T01:54:24.319Z,17.60
2018-07-07T01:56:55.233Z,17.60
2018-07-07T01:59:25.354Z,17.60
2018-07-07T02:01:55.580Z,17.50
2018-07-07T02:04:25.643Z,17.50
2018-07-07T02:06:55.706Z,17.40
2018-07-07T02:09:25.860Z,17.40
2018-07-07T02:11:56.058Z,17.30
2018-07-07T02:14:26.782Z,17.30
2018-07-07T02:16:56.861Z,17.30
2018-07-07T02:19:27.009Z,17.30
2018-07-07T02:21:57.143Z,17.20
2018-07-07T02:24:27.362Z,17.20
2018-07-07T02:26:57.480Z,17.20
2018-07-07T02:29:27.588Z,17.10
2018-07-07T02:31:57.805Z,17.10
2018-07-07T02:34:27.921Z,17.00
2018-07-07T02:36:58.098Z,17.00
2018-07-07T02:39:28.219Z,17.00
2018-07-07T02:41:58.314Z,16.90
2018-07-07T02:44:28.439Z,16.90
2018-07-07T02:46:58.626Z,16.90
2018-07-07T02:49:28.749Z,16.90
2018-07-07T02:51:58.860Z,16.90
2018-07-07T02:54:29.020Z,16.90
2018-07-07T02:56:59.484Z,16.80
2018-07-07T02:59:29.733Z,16.80
2018-07-07T03:02:00.078Z,16.70
2018-07-07T03:04:30.232Z,16.70
2018-07-07T03:07:00.436Z,16.70
2018-07-07T03:09:30.653Z,16.70
2018-07-07T03:12:00.766Z,16.60
2018-07-07T03:14:30.904Z,16.60
2018-07-07T03:17:01.090Z,16.60
2018-07-07T03:19:31.204Z,16.60
2018-07-07T03:22:01.329Z,16.60
2018-07-07T03:24:31.440Z,16.60
2018-07-07T03:27:01.597Z,17.50
2018-07-07T03:29:31.732Z,16.60
2018-07-07T03:32:01.836Z,16.60
2018-07-07T03:34:31.895Z,16.60
2018-07-07T03:37:02.154Z,16.60
2018-07-07T03:39:32.326Z,16.60
2018-07-07T03:42:02.495Z,16.60
2018-07-07T03:44:32.596Z,16.60
2018-07-07T03:47:02.720Z,16.60
2018-07-07T03:49:32.833Z,16.60
2018-07-07T03:52:03.029Z,16.50
2018-07-07T03:54:33.280Z,16.50
2018-07-07T03:57:04.909Z,16.50
2018-07-07T03:59:35.464Z,16.50
2018-07-07T04:02:08.020Z,16.50
2018-07-07T04:04:40.048Z,16.40
2018-07-07T04:07:11.091Z,16.40
2018-07-07T04:09:41.624Z,16.30
2018-07-07T04:12:11.700Z,16.30
2018-07-07T04:14:41.787Z,16.40
2018-07-07T04:17:11.963Z,16.40
2018-07-07T04:19:42.150Z,16.40
2018-07-07T04:22:12.304Z,16.40
2018-07-07T04:24:42.496Z,16.50
2018-07-07T04:27:12.665Z,16.50
2018-07-07T04:29:42.940Z,16.50
2018-07-07T04:32:12.954Z,16.50
2018-07-07T04:34:43.030Z,16.60
2018-07-07T04:37:13.499Z,16.60
2018-07-07T04:39:44.337Z,16.60
2018-07-07T04:42:14.491Z,16.60
2018-07-07T04:44:44.644Z,16.70
2018-07-07T04:47:14.757Z,16.70
2018-07-07T04:49:44.928Z,16.70
2018-07-07T04:52:15.012Z,16.70
2018-07-07T04:54:45.841Z,16.80
2018-07-07T04:57:16.023Z,16.80
2018-07-07T04:59:46.161Z,16.80
2018-07-07T05:02:16.243Z,16.90
2018-07-07T05:04:46.385Z,16.90
2018-07-07T05:07:16.549Z,16.90
2018-07-07T05:09:47.131Z,16.90
2018-07-07T05:12:17.232Z,17.00
2018-07-07T05:14:47.380Z,17.10
2018-07-07T05:17:17.529Z,17.10
2018-07-07T05:19:47.718Z,17.10
2018-07-07T05:22:17.864Z,17.10
2018-07-07T05:24:48.032Z,17.10
2018-07-07T05:27:18.108Z,17.10
2018-07-07T05:29:48.243Z,17.20
2018-07-07T05:32:18.445Z,17.20
2018-07-07T05:34:48.624Z,17.20
2018-07-07T05:37:18.886Z,17.20
2018-07-07T05:39:49.345Z,17.30
2018-07-07T05:42:19.674Z,17.30
2018-07-07T05:44:49.908Z,17.30
2018-07-07T05:47:20.059Z,17.30
2018-07-07T05:49:50.225Z,17.30
2018-07-07T05:52:20.508Z,17.40
2018-07-07T05:54:50.713Z,17.40
2018-07-07T05:57:20.796Z,17.50
2018-07-07T05:59:50.972Z,17.50
2018-07-07T06:02:21.066Z,17.60
2018-07-07T06:04:51.253Z,17.60
2018-07-07T06:07:21.519Z,17.70
2018-07-07T06:09:51.561Z,17.70
2018-07-07T06:12:21.669Z,17.80
2018-07-07T06:14:51.814Z,17.80
2018-07-07T06:17:22.109Z,17.90
2018-07-07T06:19:52.261Z,17.90
2018-07-07T06:22:22.324Z,17.90
2018-07-07T06:24:52.435Z,18.00
2018-07-07T06:27:22.621Z,18.00
2018-07-07T06:29:52.741Z,18.00
2018-07-07T06:32:22.895Z,18.00
2018-07-07T06:34:53.259Z,18.10
2018-07-07T06:37:23.351Z,18.10
2018-07-07T06:39:53.525Z,18.20
2018-07-07T06:42:23.698Z,18.20
2018-07-07T06:44:53.919Z,18.20
2018-07-07T06:47:24.109Z,18.30
2018-07-07T06:49:54.280Z,18.40
2018-07-07T06:52:24.475Z,18.40
2018-07-07T06:54:54.619Z,18.50
2018-07-07T06:57:24.995Z,18.50
2018-07-07T06:59:55.142Z,18.60
2018-07-07T07:02:25.166Z,18.60
2018-07-07T07:04:55.822Z,18.70
2018-07-07T07:07:26.002Z,18.70
2018-07-07T07:09:56.211Z,18.80
2018-07-07T07:12:26.307Z,18.90
2018-07-07T07:14:56.438Z,18.90
2018-07-07T07:17:26.446Z,18.90
2018-07-07T07:20:06.403Z,19.00
2018-07-07T07:22:36.689Z,19.00
2018-07-07T07:25:06.914Z,19.10
2018-07-07T07:27:37.056Z,19.10
2018-07-07T07:30:08.961Z,19.10
2018-07-07T07:32:39.142Z,19.10
2018-07-07T07:35:09.416Z,19.00
2018-07-07T07:37:39.637Z,19.10
2018-07-07T07:40:09.808Z,19.10
2018-07-07T07:42:40.014Z,19.10
2018-07-07T07:45:10.215Z,19.10
2018-07-07T07:47:40.329Z,19.20
2018-07-07T07:50:10.357Z,19.30
2018-07-07T07:52:40.456Z,19.30
2018-07-07T07:55:11.425Z,19.40
2018-07-07T07:57:41.787Z,19.50
2018-07-07T08:00:11.972Z,19.50
2018-07-07T08:02:42.042Z,19.60
2018-07-07T08:05:12.495Z,19.60
2018-07-07T08:07:42.698Z,19.60
2018-07-07T08:10:12.809Z,19.60
2018-07-07T08:12:44.030Z,19.70
2018-07-07T08:15:14.209Z,19.60
2018-07-07T08:17:44.319Z,19.70
2018-07-07T08:20:14.853Z,19.70
2018-07-07T08:22:44.954Z,19.80
2018-07-07T08:25:15.026Z,19.90
2018-07-07T08:27:45.157Z,19.90
2018-07-07T08:30:15.403Z,20.00
2018-07-07T08:32:45.590Z,20.00
2018-07-07T08:35:15.803Z,20.00
2018-07-07T08:37:45.860Z,20.10
2018-07-07T08:40:16.056Z,20.20
2018-07-07T08:42:46.239Z,20.20
2018-07-07T08:45:16.327Z,20.20
2018-07-07T08:47:46.500Z,20.30
2018-07-07T08:50:16.660Z,20.40
2018-07-07T08:52:50.720Z,20.50
2018-07-07T08:55:20.899Z,20.60
2018-07-07T08:57:51.137Z,20.80
2018-07-07T09:00:21.277Z,20.90
2018-07-07T09:02:51.378Z,21.00
2018-07-07T09:05:21.475Z,21.10
2018-07-07T09:07:51.687Z,21.10
2018-07-07T09:10:21.915Z,21.30
2018-07-07T09:12:52.095Z,21.40
2018-07-07T09:15:22.233Z,21.20
2018-07-07T09:17:52.653Z,21.20
2018-07-07T09:20:22.881Z,21.20
2018-07-07T09:22:54.751Z,21.20
2018-07-07T09:25:25.372Z,21.30
2018-07-07T09:27:56.072Z,21.30
2018-07-07T09:30:26.149Z,21.30
2018-07-07T09:35:26.656Z,21.30
2018-07-07T09:37:57.634Z,21.40
2018-07-07T09:40:27.755Z,21.40
2018-07-07T09:42:57.851Z,21.50
2018-07-07T09:45:28.049Z,21.60
2018-07-07T09:47:58.284Z,21.60
2018-07-07T09:50:28.451Z,21.60
2018-07-07T09:52:58.695Z,21.60
2018-07-07T09:55:28.818Z,21.40
2018-07-07T09:57:59.409Z,21.50
2018-07-07T10:00:34.693Z,21.60
2018-07-07T10:03:04.749Z,21.80
2018-07-07T10:05:34.938Z,21.80
2018-07-07T10:08:05.460Z,21.70
2018-07-07T10:10:36.388Z,21.60
2018-07-07T10:13:07.471Z,21.60
2018-07-07T10:15:37.698Z,21.60
2018-07-07T10:18:08.229Z,21.70
2018-07-07T10:20:38.357Z,21.80
2018-07-07T10:23:08.699Z,21.80
2018-07-07T10:25:38.776Z,21.70
2018-07-07T10:28:08.876Z,21.60
2018-07-07T10:30:39.003Z,21.60
2018-07-07T10:33:09.130Z,21.60
2018-07-07T10:35:39.405Z,21.80
2018-07-07T10:38:09.615Z,21.90
2018-07-07T10:40:39.928Z,22.20
2018-07-07T10:43:10.576Z,22.30
2018-07-07T10:45:41.356Z,22.30
2018-07-07T10:48:11.460Z,22.20
2018-07-07T10:50:41.488Z,22.20
2018-07-07T10:53:11.786Z,22.30
2018-07-07T10:55:41.960Z,22.50
2018-07-07T10:58:12.148Z,22.50
2018-07-07T11:00:42.276Z,22.40
2018-07-07T11:03:13.124Z,22.40
2018-07-07T11:08:13.014Z,22.50
2018-07-07T11:10:43.200Z,22.60
2018-07-07T11:13:14.015Z,22.60
2018-07-07T11:15:44.272Z,22.50
2018-07-07T11:18:14.373Z,22.60
2018-07-07T11:20:44.580Z,22.60
2018-07-07T11:23:14.666Z,22.70
2018-07-07T11:25:44.732Z,22.70
2018-07-07T11:28:15.000Z,22.70
2018-07-07T11:30:45.190Z,22.60
2018-07-07T11:33:15.324Z,22.60
2018-07-07T11:35:45.427Z,22.60
2018-07-07T11:38:15.666Z,22.60
2018-07-07T11:40:45.934Z,22.60
2018-07-07T11:43:16.062Z,22.60
2018-07-07T11:45:46.259Z,22.60
2018-07-07T11:48:16.541Z,22.50
2018-07-07T11:50:46.662Z,22.50
2018-07-07T11:53:17.498Z,22.60
2018-07-07T11:55:48.651Z,22.60
2018-07-07T11:58:18.807Z,22.60
2018-07-07T12:00:50.046Z,22.70
2018-07-07T12:03:20.201Z,22.70
2018-07-07T12:05:50.862Z,22.70
2018-07-07T12:08:21.077Z,22.80
2018-07-07T12:10:51.202Z,22.90
2018-07-07T12:13:21.301Z,22.90
2018-07-07T12:15:51.439Z,22.90
2018-07-07T12:18:22.182Z,22.80
2018-07-07T12:20:52.883Z,22.80
2018-07-07T12:23:23.947Z,22.80
2018-07-07T12:25:54.162Z,22.90
2018-07-07T12:28:24.329Z,22.90
2018-07-07T12:30:54.531Z,22.80
2018-07-07T12:33:24.884Z,22.80
2018-07-07T12:35:55.720Z,22.90
2018-07-07T12:38:25.886Z,23.00
2018-07-07T12:40:55.960Z,23.10
2018-07-07T12:43:26.089Z,23.20
2018-07-07T12:45:56.312Z,23.20
2018-07-07T12:48:26.997Z,23.30
2018-07-07T12:50:57.169Z,23.40
2018-07-07T12:53:27.853Z,23.50
2018-07-07T12:55:58.914Z,23.60
2018-07-07T12:58:29.683Z,23.60
2018-07-07T13:00:59.855Z,23.70
2018-07-07T13:03:29.958Z,23.60
2018-07-07T13:05:59.998Z,23.70
2018-07-07T13:08:30.209Z,23.60
2018-07-07T13:11:00.304Z,23.60
2018-07-07T13:13:30.379Z,23.60
2018-07-07T13:16:00.577Z,23.60
2018-07-07T13:18:30.781Z,23.50
2018-07-07T13:21:01.039Z,23.60
2018-07-07T13:23:32.249Z,23.70
2018-07-07T13:26:02.373Z,23.90
2018-07-07T13:28:32.477Z,23.90
2018-07-07T13:31:02.653Z,23.90
2018-07-07T13:33:32.736Z,24.00
2018-07-07T13:36:02.887Z,24.10
2018-07-07T13:38:36.603Z,24.20
2018-07-07T13:41:09.091Z,24.20
2018-07-07T13:43:39.981Z,24.30
2018-07-07T13:46:10.231Z,24.30
2018-07-07T13:48:40.423Z,24.40
2018-07-07T13:51:10.568Z,24.40
2018-07-07T13:53:40.663Z,24.50
2018-07-07T13:56:10.847Z,24.60
2018-07-07T13:58:41.024Z,24.70
2018-07-07T14:01:12.256Z,24.80
2018-07-07T14:03:42.456Z,24.80
2018-07-07T14:06:12.725Z,25.10
2018-07-07T14:08:42.879Z,27.30
2018-07-07T14:11:13.061Z,30.20
2018-07-07T14:13:43.680Z,32.90
2018-07-07T14:16:13.757Z,34.90
2018-07-07T14:18:44.039Z,36.10
2018-07-07T14:21:14.219Z,37.10
2018-07-07T14:26:14.205Z,37.70
2018-07-07T14:28:44.349Z,37.90
2018-07-07T14:31:14.509Z,37.10
2018-07-07T14:33:44.673Z,35.60
2018-07-07T14:36:14.837Z,33.20
2018-07-07T14:38:45.045Z,31.40
2018-07-07T14:41:23.129Z,30.10
2018-07-07T14:43:55.875Z,29.10
2018-07-07T14:46:26.890Z,28.40
2018-07-07T14:48:56.965Z,27.90
2018-07-07T14:51:27.158Z,28.00
2018-07-07T14:53:57.478Z,30.50
2018-07-07T14:56:28.264Z,33.80
2018-07-07T14:58:58.385Z,36.60
2018-07-07T15:01:28.526Z,38.70
2018-07-07T15:04:02.766Z,40.60
2018-07-07T15:06:33.014Z,41.20
2018-07-07T15:09:03.145Z,41.40
2018-07-07T15:11:33.339Z,41.40
2018-07-07T15:14:03.528Z,41.30
2018-07-07T15:16:33.687Z,41.60
2018-07-07T15:19:03.782Z,42.50
2018-07-07T15:21:34.046Z,42.50
2018-07-07T15:24:04.144Z,43.20
2018-07-07T15:26:34.444Z,42.70
2018-07-07T15:29:04.642Z,43.50
2018-07-07T15:31:34.937Z,44.20
2018-07-07T15:34:05.680Z,42.50
2018-07-07T15:36:36.000Z,40.90
2018-07-07T15:39:06.994Z,42.00
2018-07-07T15:41:37.131Z,42.60
2018-07-07T15:44:07.586Z,42.00
2018-07-07T15:46:37.717Z,39.40
2018-07-07T15:49:08.859Z,38.80
2018-07-07T15:51:39.095Z,39.80
2018-07-07T15:54:09.311Z,40.80
2018-07-07T15:56:39.602Z,41.90
2018-07-07T15:59:09.852Z,42.50
2018-07-07T16:01:40.160Z,42.10
2018-07-07T16:04:10.869Z,40.20
2018-07-07T16:06:42.040Z,37.70
2018-07-07T16:09:12.194Z,35.60
2018-07-07T16:11:43.468Z,33.80
2018-07-07T16:14:13.732Z,32.40
2018-07-07T16:16:43.942Z,31.50
2018-07-07T16:19:14.690Z,30.70
2018-07-07T16:21:45.989Z,30.00
2018-07-07T16:24:16.166Z,29.50
2018-07-07T16:26:46.669Z,29.40
2018-07-07T16:29:16.829Z,29.30
2018-07-07T16:31:46.945Z,29.10
2018-07-07T16:34:17.029Z,28.80
2018-07-07T16:36:47.945Z,28.50
2018-07-07T16:39:18.325Z,28.60
2018-07-07T16:41:48.911Z,28.40
2018-07-07T16:44:19.129Z,28.10
2018-07-07T16:46:49.808Z,28.00
2018-07-07T16:49:20.049Z,27.80
2018-07-07T16:54:21.571Z,27.30
2018-07-07T16:56:52.293Z,27.20
2018-07-07T16:59:23.313Z,27.20
2018-07-07T17:01:53.983Z,27.20
2018-07-07T17:04:24.188Z,27.00
2018-07-07T17:06:54.427Z,27.00
2018-07-07T17:09:25.149Z,27.00
2018-07-07T17:11:55.406Z,27.00
2018-07-07T17:14:25.529Z,27.00
2018-07-07T17:16:56.199Z,27.00
2018-07-07T17:19:26.913Z,26.90
2018-07-07T17:21:57.083Z,26.80
2018-07-07T17:24:30.236Z,27.20
2018-07-07T17:27:00.643Z,27.40
2018-07-07T17:29:31.507Z,27.20
2018-07-07T17:32:02.483Z,26.90
2018-07-07T17:34:32.746Z,26.50
2018-07-07T17:37:03.095Z,26.30
2018-07-07T17:39:33.228Z,26.10
2018-07-07T17:42:03.444Z,25.90
2018-07-07T17:44:34.458Z,25.70
2018-07-07T17:47:04.661Z,25.70
2018-07-07T17:49:34.946Z,25.60
2018-07-07T17:52:05.084Z,25.50
2018-07-07T17:54:36.013Z,25.50
2018-07-07T17:57:06.437Z,25.40
2018-07-07T17:59:36.923Z,25.40
2018-07-07T18:02:07.493Z,25.40
2018-07-07T18:04:38.404Z,25.40
2018-07-07T18:07:08.621Z,25.30
2018-07-07T18:09:38.800Z,25.20
2018-07-07T18:12:08.992Z,25.10
2018-07-07T18:14:39.655Z,25.10
2018-07-07T18:19:39.715Z,24.90
2018-07-07T18:22:10.024Z,24.80
2018-07-07T18:24:40.247Z,24.80
2018-07-07T18:27:10.497Z,24.70
2018-07-07T18:29:40.697Z,24.60
2018-07-07T18:32:11.032Z,24.60
2018-07-07T18:34:41.240Z,24.50
2018-07-07T18:37:11.492Z,24.50
2018-07-07T18:39:41.704Z,24.40
2018-07-07T18:42:11.818Z,24.40
2018-07-07T18:44:42.230Z,24.30
2018-07-07T18:47:12.478Z,24.30
2018-07-07T18:49:42.739Z,24.20
2018-07-07T18:52:13.645Z,24.20
2018-07-07T18:54:43.716Z,24.10
2018-07-07T18:57:13.728Z,24.10
2018-07-07T18:59:44.006Z,24.00
2018-07-07T19:02:14.170Z,24.00
2018-07-07T19:04:44.435Z,23.90
2018-07-07T19:07:14.670Z,23.90
2018-07-07T19:09:44.802Z,23.80
2018-07-07T19:12:14.950Z,23.70
2018-07-07T19:14:45.532Z,23.70
2018-07-07T19:17:15.829Z,23.70
2018-07-07T19:19:46.004Z,23.60
2018-07-07T19:22:21.323Z,23.60
2018-07-07T19:24:56.608Z,23.50
2018-07-07T19:27:26.871Z,23.50
2018-07-07T19:29:57.593Z,23.50
2018-07-07T19:32:32.905Z,23.40
2018-07-07T19:35:08.362Z,23.40
2018-07-07T19:37:38.528Z,23.30
2018-07-07T19:40:08.714Z,23.30
2018-07-07T19:42:39.807Z,23.20
2018-07-07T19:45:10.593Z,23.20
2018-07-07T19:47:40.759Z,23.20
2018-07-07T19:50:11.000Z,23.10
2018-07-07T19:52:41.803Z,23.10
2018-07-07T19:55:11.970Z,23.10
2018-07-07T19:57:42.153Z,23.00
2018-07-07T20:00:13.620Z,21.90
2018-07-07T20:02:45.009Z,23.00
2018-07-07T20:05:15.949Z,22.90
2018-07-07T20:07:46.150Z,22.90
2018-07-07T20:10:16.304Z,22.80
2018-07-07T20:12:48.258Z,22.80
2018-07-07T20:15:24.429Z,22.80
2018-07-07T20:18:04.829Z,22.80
2018-07-07T20:20:40.485Z,22.80
2018-07-07T20:23:12.684Z,22.70
2018-07-07T20:25:47.397Z,22.70
2018-07-07T20:28:22.734Z,22.70
2018-07-07T20:30:57.830Z,22.60
2018-07-07T20:33:29.222Z,22.60
2018-07-07T20:35:59.658Z,22.50
2018-07-07T20:38:30.452Z,22.40
2018-07-07T20:41:01.878Z,22.40
2018-07-07T20:43:32.223Z,22.30
2018-07-07T20:46:02.365Z,22.30
2018-07-07T20:48:32.704Z,22.20
2018-07-07T20:51:03.065Z,22.20
2018-07-07T20:53:33.378Z,22.10
2018-07-07T20:56:03.738Z,22.10
2018-07-07T20:58:33.879Z,22.00
2018-07-07T21:01:04.221Z,22.00
2018-07-07T21:03:34.350Z,21.90
2018-07-07T21:06:05.112Z,21.80
2018-07-07T21:11:06.710Z,21.60
2018-07-07T21:13:37.086Z,21.60
2018-07-07T21:16:07.508Z,21.50
2018-07-07T21:18:38.167Z,21.40
2018-07-07T21:21:08.549Z,21.40
2018-07-07T21:23:38.682Z,21.30
2018-07-07T21:26:08.709Z,21.30
2018-07-07T21:28:38.875Z,21.20
2018-07-07T21:31:09.053Z,21.20
2018-07-07T21:33:39.179Z,21.10
2018-07-07T21:36:09.399Z,21.10
2018-07-07T21:38:39.587Z,21.10
2018-07-07T21:43:39.859Z,21.00
2018-07-07T21:46:10.513Z,21.00
2018-07-07T21:48:40.605Z,20.90
2018-07-07T21:51:10.973Z,20.90
2018-07-07T21:53:41.196Z,20.90
2018-07-07T21:56:11.321Z,20.80
2018-07-07T21:58:41.425Z,20.80
2018-07-07T22:01:26.814Z,20.80
2018-07-07T22:04:02.237Z,20.70
2018-07-07T22:06:37.616Z,20.70
2018-07-07T22:09:07.781Z,20.70
2018-07-07T22:11:37.996Z,20.60
2018-07-07T22:14:08.179Z,20.60
2018-07-07T22:16:39.210Z,20.60
2018-07-07T22:19:09.379Z,20.60
2018-07-07T22:22:07.912Z,20.60
2018-07-07T22:24:39.058Z,20.50
2018-07-07T22:27:11.932Z,20.60
2018-07-07T22:29:42.166Z,20.60
2018-07-07T22:32:17.846Z,20.50
2018-07-07T22:34:48.088Z,20.50
2018-07-07T22:37:18.555Z,20.50
2018-07-07T22:39:48.829Z,20.50
2018-07-07T22:42:19.851Z,20.50
2018-07-07T22:44:50.169Z,20.50
2018-07-07T22:47:21.005Z,20.40
2018-07-07T22:49:51.176Z,20.40
2018-07-07T22:52:21.453Z,20.40
2018-07-07T22:54:51.615Z,20.40
2018-07-07T22:57:21.726Z,20.30
2018-07-07T22:59:52.700Z,20.30
2018-07-07T23:02:22.787Z,20.20
2018-07-07T23:04:53.673Z,20.20
2018-07-07T23:07:23.752Z,20.10
2018-07-07T23:09:53.896Z,20.00
2018-07-07T23:12:24.093Z,20.00
2018-07-07T23:14:54.348Z,19.90
2018-07-07T23:17:24.579Z,19.80
2018-07-07T23:19:54.694Z,19.80
2018-07-07T23:22:45.674Z,19.70
2018-07-07T23:25:16.108Z,19.60
2018-07-07T23:27:46.699Z,19.60
2018-07-07T23:30:17.144Z,19.50
2018-07-07T23:32:47.818Z,19.50
2018-07-07T23:35:17.936Z,19.40
2018-07-07T23:37:48.014Z,19.40
2018-07-07T23:40:18.146Z,19.40
2018-07-07T23:42:48.241Z,19.40
2018-07-07T23:45:18.437Z,19.30
2018-07-07T23:47:48.559Z,19.30
2018-07-07T23:50:18.815Z,19.20
2018-07-07T23:52:49.047Z,19.20
2018-07-07T23:55:19.863Z,19.20
2018-07-07T23:57:49.899Z,19.20
